LEAS/OVD METAR and TAF weather

Enter ICAO airport designator
Station Type Date Time Source
LEAS METAR 2021/01/16 02:30 UTC NOAA

LEAS 160230Z AUTO 25008KT CAVOK 04/02 Q1030


Station Type Date Time Source
LEAS Decoded METAR 2021/01/16 02:30 UTC NOAA

Asturias / Aviles, Spain (LEAS) 43-33N 006-02W 130M
Jan 15, 2021 - 09:30 PM EST / 2021.01.16 0230 UTC
Wind: from the WSW (250 degrees) at 9 MPH (8 KT):0
Visibility: greater than 7 mile(s):0
Temperature: 39 F (4 C)
Dew Point: 35 F (2 C)
Relative Humidity: 86%
Pressure (altimeter): 30.42 in. Hg (1030 hPa)
ob: LEAS 160230Z AUTO 25008KT CAVOK 04/02 Q1030
cycle: 2

Station Type Date Time Source
LEAS TAF 2021/01/16 03:30 UTC NOAA

TAF LEAS 160200Z 1603/1703 23009KT 9999 FEW040 TX13/1615Z TN03/1605Z

Example: see airport list